sensor_id;sensor_type;location;lat;lon;timestamp;temperature;humidity
57753;DHT22;43583;53.132;6.574;2023-02-21T00:02:10;9.70;99.90
57753;DHT22;43583;53.132;6.574;2023-02-21T00:04:54;9.70;99.90
57753;DHT22;43583;53.132;6.574;2023-02-21T00:07:39;9.70;99.90
57753;DHT22;43583;53.132;6.574;2023-02-21T00:10:23;9.70;99.90
57753;DHT22;43583;53.132;6.574;2023-02-21T00:13:07;9.70;99.90
57753;DHT22;43583;53.132;6.574;2023-02-21T00:15:51;9.70;99.90
57753;DHT22;43583;53.132;6.574;2023-02-21T00:18:36;9.80;99.90
57753;DHT22;43583;53.132;6.574;2023-02-21T00:21:21;9.80;99.90
57753;DHT22;43583;53.132;6.574;2023-02-21T00:24:06;9.80;99.90
57753;DHT22;43583;53.132;6.574;2023-02-21T00:26:50;9.80;99.90
57753;DHT22;43583;53.132;6.574;2023-02-21T00:29:35;9.90;99.90
57753;DHT22;43583;53.132;6.574;2023-02-21T00:32:19;9.90;99.90
57753;DHT22;43583;53.132;6.574;2023-02-21T00:35:03;9.90;99.90
57753;DHT22;43583;53.132;6.574;2023-02-21T00:37:50;9.90;99.90
57753;DHT22;43583;53.132;6.574;2023-02-21T00:40:35;9.90;99.90
57753;DHT22;43583;53.132;6.574;2023-02-21T00:43:19;9.90;99.90
57753;DHT22;43583;53.132;6.574;2023-02-21T00:46:10;9.90;99.90
57753;DHT22;43583;53.132;6.574;2023-02-21T00:48:54;9.90;99.90
57753;DHT22;43583;53.132;6.574;2023-02-21T00:51:38;9.90;99.90
57753;DHT22;43583;53.132;6.574;2023-02-21T00:54:22;9.90;99.90
57753;DHT22;43583;53.132;6.574;2023-02-21T00:57:06;9.90;99.90
57753;DHT22;43583;53.132;6.574;2023-02-21T00:59:50;9.80;99.90
57753;DHT22;43583;53.132;6.574;2023-02-21T01:02:35;9.80;99.90
57753;DHT22;43583;53.132;6.574;2023-02-21T01:05:19;9.80;99.90
57753;DHT22;43583;53.132;6.574;2023-02-21T01:08:03;9.80;99.90
57753;DHT22;43583;53.132;6.574;2023-02-21T01:10:47;9.80;99.90
57753;DHT22;43583;53.132;6.574;2023-02-21T01:13:32;9.80;99.90
57753;DHT22;43583;53.132;6.574;2023-02-21T01:16:16;9.80;99.90
57753;DHT22;43583;53.132;6.574;2023-02-21T01:19:00;9.80;99.90
57753;DHT22;43583;53.132;6.574;2023-02-21T01:21:44;9.80;99.90
57753;DHT22;43583;53.132;6.574;2023-02-21T01:24:28;9.80;99.90
57753;DHT22;43583;53.132;6.574;2023-02-21T01:27:12;9.80;99.90
57753;DHT22;43583;53.132;6.574;2023-02-21T01:29:56;9.80;99.90
57753;DHT22;43583;53.132;6.574;2023-02-21T01:32:41;9.80;99.90
57753;DHT22;43583;53.132;6.574;2023-02-21T01:35:25;9.80;99.90
57753;DHT22;43583;53.132;6.574;2023-02-21T01:38:09;9.80;99.90
57753;DHT22;43583;53.132;6.574;2023-02-21T01:40:54;9.80;99.90
57753;DHT22;43583;53.132;6.574;2023-02-21T01:43:38;9.80;99.90
57753;DHT22;43583;53.132;6.574;2023-02-21T01:46:22;9.70;99.90
57753;DHT22;43583;53.132;6.574;2023-02-21T01:49:10;9.70;99.90
57753;DHT22;43583;53.132;6.574;2023-02-21T01:51:56;9.80;99.90
57753;DHT22;43583;53.132;6.574;2023-02-21T01:54:46;9.70;99.90
57753;DHT22;43583;53.132;6.574;2023-02-21T01:57:31;9.80;99.90
57753;DHT22;43583;53.132;6.574;2023-02-21T02:00:15;9.70;99.90
57753;DHT22;43583;53.132;6.574;2023-02-21T02:03:05;9.70;99.90
57753;DHT22;43583;53.132;6.574;2023-02-21T02:05:54;9.70;99.90
57753;DHT22;43583;53.132;6.574;2023-02-21T02:08:39;9.70;99.90
57753;DHT22;43583;53.132;6.574;2023-02-21T02:11:40;9.80;99.90
57753;DHT22;43583;53.132;6.574;2023-02-21T02:17:13;9.80;99.90
57753;DHT22;43583;53.132;6.574;2023-02-21T02:20:19;9.80;99.90
57753;DHT22;43583;53.132;6.574;2023-02-21T02:23:04;9.80;99.90
57753;DHT22;43583;53.132;6.574;2023-02-21T02:39:40;9.80;99.90
57753;DHT22;43583;53.132;6.574;2023-02-21T02:42:35;9.80;99.90
57753;DHT22;43583;53.132;6.574;2023-02-21T02:45:18;9.80;99.90
57753;DHT22;43583;53.132;6.574;2023-02-21T02:47:49;9.80;99.90
57753;DHT22;43583;53.132;6.574;2023-02-21T02:50:16;9.80;99.90
57753;DHT22;43583;53.132;6.574;2023-02-21T02:52:53;9.80;99.90
57753;DHT22;43583;53.132;6.574;2023-02-21T02:55:45;9.80;99.90
57753;DHT22;43583;53.132;6.574;2023-02-21T02:58:12;9.80;99.90
57753;DHT22;43583;53.132;6.574;2023-02-21T03:00:42;9.70;99.90
57753;DHT22;43583;53.132;6.574;2023-02-21T03:06:05;9.80;99.90
57753;DHT22;43583;53.132;6.574;2023-02-21T03:09:02;9.80;99.90
57753;DHT22;43583;53.132;6.574;2023-02-21T03:11:31;9.80;99.90
57753;DHT22;43583;53.132;6.574;2023-02-21T03:14:08;9.80;99.90
57753;DHT22;43583;53.132;6.574;2023-02-21T03:16:49;9.80;99.90
57753;DHT22;43583;53.132;6.574;2023-02-21T03:19:19;9.70;99.90
57753;DHT22;43583;53.132;6.574;2023-02-21T03:21:50;9.70;99.90
57753;DHT22;43583;53.132;6.574;2023-02-21T03:24:18;9.70;99.90
57753;DHT22;43583;53.132;6.574;2023-02-21T03:26:47;9.70;99.90
57753;DHT22;43583;53.132;6.574;2023-02-21T03:29:15;9.70;99.90
57753;DHT22;43583;53.132;6.574;2023-02-21T03:31:45;9.70;99.90
57753;DHT22;43583;53.132;6.574;2023-02-21T03:34:12;9.70;99.90
57753;DHT22;43583;53.132;6.574;2023-02-21T03:36:38;9.70;99.90
57753;DHT22;43583;53.132;6.574;2023-02-21T03:39:04;9.60;99.90
57753;DHT22;43583;53.132;6.574;2023-02-21T03:41:30;9.60;99.90
57753;DHT22;43583;53.132;6.574;2023-02-21T03:43:55;9.60;99.90
57753;DHT22;43583;53.132;6.574;2023-02-21T03:46:21;9.60;99.90
57753;DHT22;43583;53.132;6.574;2023-02-21T03:48:47;9.60;99.90
57753;DHT22;43583;53.132;6.574;2023-02-21T03:51:12;9.60;99.90
57753;DHT22;43583;53.132;6.574;2023-02-21T03:53:38;9.60;99.90
57753;DHT22;43583;53.132;6.574;2023-02-21T03:56:04;9.60;99.90
57753;DHT22;43583;53.132;6.574;2023-02-21T03:58:30;9.60;99.90
57753;DHT22;43583;53.132;6.574;2023-02-21T04:00:56;9.60;99.90
57753;DHT22;43583;53.132;6.574;2023-02-21T04:03:22;9.60;99.90
57753;DHT22;43583;53.132;6.574;2023-02-21T04:05:48;9.60;99.90
57753;DHT22;43583;53.132;6.574;2023-02-21T04:08:13;9.60;99.90
57753;DHT22;43583;53.132;6.574;2023-02-21T04:10:39;9.60;99.90
57753;DHT22;43583;53.132;6.574;2023-02-21T04:13:04;9.60;99.90
57753;DHT22;43583;53.132;6.574;2023-02-21T04:15:31;9.60;99.90
57753;DHT22;43583;53.132;6.574;2023-02-21T04:17:57;9.60;99.90
57753;DHT22;43583;53.132;6.574;2023-02-21T04:20:24;9.60;99.90
57753;DHT22;43583;53.132;6.574;2023-02-21T04:22:50;9.60;99.90
57753;DHT22;43583;53.132;6.574;2023-02-21T04:25:15;9.70;99.90
57753;DHT22;43583;53.132;6.574;2023-02-21T04:27:41;9.60;99.90
57753;DHT22;43583;53.132;6.574;2023-02-21T04:30:07;9.60;99.90
57753;DHT22;43583;53.132;6.574;2023-02-21T04:32:33;9.60;99.90
57753;DHT22;43583;53.132;6.574;2023-02-21T04:34:58;9.60;99.90
57753;DHT22;43583;53.132;6.574;2023-02-21T04:37:24;9.60;99.90
57753;DHT22;43583;53.132;6.574;2023-02-21T04:39:49;9.60;99.90
57753;DHT22;43583;53.132;6.574;2023-02-21T04:42:15;9.60;99.90
57753;DHT22;43583;53.132;6.574;2023-02-21T04:44:41;9.60;99.90
57753;DHT22;43583;53.132;6.574;2023-02-21T04:47:07;9.60;99.90
57753;DHT22;43583;53.132;6.574;2023-02-21T04:49:32;9.60;99.90
57753;DHT22;43583;53.132;6.574;2023-02-21T04:51:58;9.60;99.90
57753;DHT22;43583;53.132;6.574;2023-02-21T04:54:23;9.60;99.90
57753;DHT22;43583;53.132;6.574;2023-02-21T04:56:49;9.60;99.90
57753;DHT22;43583;53.132;6.574;2023-02-21T04:59:15;9.60;99.90
57753;DHT22;43583;53.132;6.574;2023-02-21T05:01:40;9.60;99.90
57753;DHT22;43583;53.132;6.574;2023-02-21T05:04:06;9.50;99.90
57753;DHT22;43583;53.132;6.574;2023-02-21T05:06:31;9.50;99.90
57753;DHT22;43583;53.132;6.574;2023-02-21T05:08:58;9.50;99.90
57753;DHT22;43583;53.132;6.574;2023-02-21T05:11:24;9.50;99.90
57753;DHT22;43583;53.132;6.574;2023-02-21T05:13:51;9.50;99.90
57753;DHT22;43583;53.132;6.574;2023-02-21T05:16:17;9.40;99.90
57753;DHT22;43583;53.132;6.574;2023-02-21T05:18:45;9.40;99.90
57753;DHT22;43583;53.132;6.574;2023-02-21T05:21:13;9.40;99.90
57753;DHT22;43583;53.132;6.574;2023-02-21T05:23:39;9.40;99.90
57753;DHT22;43583;53.132;6.574;2023-02-21T05:26:09;9.40;99.90
57753;DHT22;43583;53.132;6.574;2023-02-21T05:28:36;9.40;99.90
57753;DHT22;43583;53.132;6.574;2023-02-21T05:31:02;9.40;99.90
57753;DHT22;43583;53.132;6.574;2023-02-21T05:33:28;9.30;99.90
57753;DHT22;43583;53.132;6.574;2023-02-21T05:35:54;9.40;99.90
57753;DHT22;43583;53.132;6.574;2023-02-21T05:38:21;9.30;99.90
57753;DHT22;43583;53.132;6.574;2023-02-21T05:40:47;9.30;99.90
57753;DHT22;43583;53.132;6.574;2023-02-21T05:43:13;9.30;99.90
57753;DHT22;43583;53.132;6.574;2023-02-21T05:45:39;9.30;99.90
57753;DHT22;43583;53.132;6.574;2023-02-21T05:48:05;9.30;99.90
57753;DHT22;43583;53.132;6.574;2023-02-21T05:50:31;9.30;99.90
57753;DHT22;43583;53.132;6.574;2023-02-21T05:52:57;9.30;99.90
57753;DHT22;43583;53.132;6.574;2023-02-21T05:55:23;9.30;99.90
57753;DHT22;43583;53.132;6.574;2023-02-21T05:57:49;9.30;99.90
57753;DHT22;43583;53.132;6.574;2023-02-21T06:00:20;9.30;99.90
57753;DHT22;43583;53.132;6.574;2023-02-21T06:02:49;9.30;99.90
57753;DHT22;43583;53.132;6.574;2023-02-21T06:05:15;9.30;99.90
57753;DHT22;43583;53.132;6.574;2023-02-21T06:07:41;9.30;99.90
57753;DHT22;43583;53.132;6.574;2023-02-21T06:10:07;9.30;99.90
57753;DHT22;43583;53.132;6.574;2023-02-21T06:12:33;9.30;99.90
57753;DHT22;43583;53.132;6.574;2023-02-21T06:14:58;9.30;99.90
57753;DHT22;43583;53.132;6.574;2023-02-21T06:17:24;9.30;99.90
57753;DHT22;43583;53.132;6.574;2023-02-21T06:19:50;9.30;99.90
57753;DHT22;43583;53.132;6.574;2023-02-21T06:22:16;9.30;99.90
57753;DHT22;43583;53.132;6.574;2023-02-21T06:24:42;9.30;99.90
57753;DHT22;43583;53.132;6.574;2023-02-21T06:27:08;9.30;99.90
57753;DHT22;43583;53.132;6.574;2023-02-21T06:29:33;9.30;99.90
57753;DHT22;43583;53.132;6.574;2023-02-21T06:32:00;9.30;99.90
57753;DHT22;43583;53.132;6.574;2023-02-21T06:34:26;9.30;99.90
57753;DHT22;43583;53.132;6.574;2023-02-21T06:36:53;9.30;99.90
57753;DHT22;43583;53.132;6.574;2023-02-21T06:39:19;9.20;99.90
57753;DHT22;43583;53.132;6.574;2023-02-21T06:41:45;9.30;99.90
57753;DHT22;43583;53.132;6.574;2023-02-21T06:44:11;9.20;99.90
57753;DHT22;43583;53.132;6.574;2023-02-21T06:46:37;9.20;99.90
57753;DHT22;43583;53.132;6.574;2023-02-21T06:49:03;9.20;99.90
57753;DHT22;43583;53.132;6.574;2023-02-21T06:51:39;9.30;99.90
57753;DHT22;43583;53.132;6.574;2023-02-21T06:54:06;9.30;99.90
57753;DHT22;43583;53.132;6.574;2023-02-21T06:56:32;9.30;99.90
57753;DHT22;43583;53.132;6.574;2023-02-21T06:58:58;9.20;99.90
57753;DHT22;43583;53.132;6.574;2023-02-21T07:01:25;9.30;99.90
57753;DHT22;43583;53.132;6.574;2023-02-21T07:03:52;9.30;99.90
57753;DHT22;43583;53.132;6.574;2023-02-21T07:06:18;9.30;99.90
57753;DHT22;43583;53.132;6.574;2023-02-21T07:08:44;9.30;99.90
57753;DHT22;43583;53.132;6.574;2023-02-21T07:11:10;9.30;99.90
57753;DHT22;43583;53.132;6.574;2023-02-21T07:13:35;9.30;99.90
57753;DHT22;43583;53.132;6.574;2023-02-21T07:16:02;9.30;99.90
57753;DHT22;43583;53.132;6.574;2023-02-21T07:18:28;9.30;99.90
57753;DHT22;43583;53.132;6.574;2023-02-21T07:20:53;9.30;99.90
57753;DHT22;43583;53.132;6.574;2023-02-21T07:23:19;9.30;99.90
57753;DHT22;43583;53.132;6.574;2023-02-21T07:25:45;9.40;99.90
57753;DHT22;43583;53.132;6.574;2023-02-21T07:28:11;9.30;99.90
57753;DHT22;43583;53.132;6.574;2023-02-21T07:30:36;9.40;99.90
57753;DHT22;43583;53.132;6.574;2023-02-21T07:33:02;9.40;99.90
57753;DHT22;43583;53.132;6.574;2023-02-21T07:35:28;9.40;99.90
57753;DHT22;43583;53.132;6.574;2023-02-21T07:37:53;9.40;99.90
57753;DHT22;43583;53.132;6.574;2023-02-21T07:40:19;9.40;99.90
57753;DHT22;43583;53.132;6.574;2023-02-21T07:42:45;9.40;99.90
57753;DHT22;43583;53.132;6.574;2023-02-21T07:45:13;9.40;99.90
57753;DHT22;43583;53.132;6.574;2023-02-21T07:47:39;9.40;99.90
57753;DHT22;43583;53.132;6.574;2023-02-21T07:50:05;9.50;99.90
57753;DHT22;43583;53.132;6.574;2023-02-21T07:52:31;9.50;99.90
57753;DHT22;43583;53.132;6.574;2023-02-21T07:54:57;9.50;99.90
57753;DHT22;43583;53.132;6.574;2023-02-21T07:57:23;9.60;99.90
57753;DHT22;43583;53.132;6.574;2023-02-21T07:59:48;9.60;99.90
57753;DHT22;43583;53.132;6.574;2023-02-21T08:02:14;9.70;99.90
57753;DHT22;43583;53.132;6.574;2023-02-21T08:04:40;9.70;99.90
57753;DHT22;43583;53.132;6.574;2023-02-21T08:07:07;9.80;99.90
57753;DHT22;43583;53.132;6.574;2023-02-21T08:09:33;9.80;99.90
57753;DHT22;43583;53.132;6.574;2023-02-21T08:11:59;9.90;99.90
57753;DHT22;43583;53.132;6.574;2023-02-21T08:14:25;9.90;99.90
57753;DHT22;43583;53.132;6.574;2023-02-21T08:16:51;9.90;99.90
57753;DHT22;43583;53.132;6.574;2023-02-21T08:19:16;10.00;99.90
57753;DHT22;43583;53.132;6.574;2023-02-21T08:21:46;10.00;99.90
57753;DHT22;43583;53.132;6.574;2023-02-21T08:24:12;10.10;99.90
57753;DHT22;43583;53.132;6.574;2023-02-21T08:26:38;10.00;99.90
57753;DHT22;43583;53.132;6.574;2023-02-21T08:29:06;10.10;99.90
57753;DHT22;43583;53.132;6.574;2023-02-21T08:31:39;10.10;99.90
57753;DHT22;43583;53.132;6.574;2023-02-21T08:34:05;10.10;99.90
57753;DHT22;43583;53.132;6.574;2023-02-21T08:36:33;10.10;99.90
57753;DHT22;43583;53.132;6.574;2023-02-21T08:38:58;10.10;99.90
57753;DHT22;43583;53.132;6.574;2023-02-21T08:41:24;10.10;99.90
57753;DHT22;43583;53.132;6.574;2023-02-21T08:43:50;10.10;99.90
57753;DHT22;43583;53.132;6.574;2023-02-21T08:46:16;10.10;99.90
57753;DHT22;43583;53.132;6.574;2023-02-21T08:48:42;10.10;99.90
57753;DHT22;43583;53.132;6.574;2023-02-21T08:51:07;10.10;99.90
57753;DHT22;43583;53.132;6.574;2023-02-21T08:53:33;10.10;99.90
57753;DHT22;43583;53.132;6.574;2023-02-21T08:55:58;10.10;99.90
57753;DHT22;43583;53.132;6.574;2023-02-21T08:58:24;10.10;99.90
57753;DHT22;43583;53.132;6.574;2023-02-21T09:00:51;10.10;99.90
57753;DHT22;43583;53.132;6.574;2023-02-21T09:03:16;10.10;99.90
57753;DHT22;43583;53.132;6.574;2023-02-21T09:05:42;10.10;99.90
57753;DHT22;43583;53.132;6.574;2023-02-21T09:08:08;10.20;99.90
57753;DHT22;43583;53.132;6.574;2023-02-21T09:10:34;10.20;99.90
57753;DHT22;43583;53.132;6.574;2023-02-21T09:13:01;10.30;99.90
57753;DHT22;43583;53.132;6.574;2023-02-21T09:15:27;10.30;99.90
57753;DHT22;43583;53.132;6.574;2023-02-21T09:17:53;10.40;99.90
57753;DHT22;43583;53.132;6.574;2023-02-21T09:20:22;10.30;99.90
57753;DHT22;43583;53.132;6.574;2023-02-21T09:22:48;10.30;99.90
57753;DHT22;43583;53.132;6.574;2023-02-21T09:25:17;10.40;99.90
57753;DHT22;43583;53.132;6.574;2023-02-21T09:27:43;10.40;99.90
57753;DHT22;43583;53.132;6.574;2023-02-21T09:30:11;10.40;99.90
57753;DHT22;43583;53.132;6.574;2023-02-21T09:32:38;10.40;99.90
57753;DHT22;43583;53.132;6.574;2023-02-21T09:35:05;10.40;99.90
57753;DHT22;43583;53.132;6.574;2023-02-21T09:37:31;10.40;99.90
57753;DHT22;43583;53.132;6.574;2023-02-21T09:39:57;10.50;99.90
57753;DHT22;43583;53.132;6.574;2023-02-21T09:42:27;10.50;99.90
57753;DHT22;43583;53.132;6.574;2023-02-21T09:44:53;10.50;99.90
57753;DHT22;43583;53.132;6.574;2023-02-21T09:47:29;10.50;99.90
57753;DHT22;43583;53.132;6.574;2023-02-21T09:49:59;10.60;99.90
57753;DHT22;43583;53.132;6.574;2023-02-21T09:52:37;10.50;99.90
57753;DHT22;43583;53.132;6.574;2023-02-21T09:57:51;10.70;99.90
57753;DHT22;43583;53.132;6.574;2023-02-21T10:00:21;10.80;99.90
57753;DHT22;43583;53.132;6.574;2023-02-21T10:05:37;10.80;99.90
57753;DHT22;43583;53.132;6.574;2023-02-21T10:08:29;10.90;99.90
57753;DHT22;43583;53.132;6.574;2023-02-21T10:16:44;10.90;99.90
57753;DHT22;43583;53.132;6.574;2023-02-21T10:19:34;10.90;99.90
57753;DHT22;43583;53.132;6.574;2023-02-21T10:22:02;10.90;99.90
57753;DHT22;43583;53.132;6.574;2023-02-21T10:24:34;10.90;99.90
57753;DHT22;43583;53.132;6.574;2023-02-21T10:27:14;10.90;99.90
57753;DHT22;43583;53.132;6.574;2023-02-21T10:30:00;11.00;99.90
57753;DHT22;43583;53.132;6.574;2023-02-21T10:32:28;11.10;99.90
57753;DHT22;43583;53.132;6.574;2023-02-21T10:34:54;11.20;99.90
57753;DHT22;43583;53.132;6.574;2023-02-21T10:37:34;11.20;99.90
57753;DHT22;43583;53.132;6.574;2023-02-21T10:43:00;11.20;99.90
57753;DHT22;43583;53.132;6.574;2023-02-21T10:45:32;11.30;99.90
57753;DHT22;43583;53.132;6.574;2023-02-21T10:48:06;11.20;99.90
57753;DHT22;43583;53.132;6.574;2023-02-21T10:50:41;11.20;99.90
57753;DHT22;43583;53.132;6.574;2023-02-21T10:53:08;11.30;99.90
57753;DHT22;43583;53.132;6.574;2023-02-21T10:55:34;11.30;99.90
57753;DHT22;43583;53.132;6.574;2023-02-21T10:58:08;11.40;99.90
57753;DHT22;43583;53.132;6.574;2023-02-21T11:00:43;11.40;99.90
57753;DHT22;43583;53.132;6.574;2023-02-21T11:03:21;11.40;99.90
57753;DHT22;43583;53.132;6.574;2023-02-21T11:05:56;11.40;99.90
57753;DHT22;43583;53.132;6.574;2023-02-21T11:11:00;11.30;99.90
57753;DHT22;43583;53.132;6.574;2023-02-21T11:13:27;11.30;99.90
57753;DHT22;43583;53.132;6.574;2023-02-21T11:18:34;11.30;99.90
57753;DHT22;43583;53.132;6.574;2023-02-21T11:21:14;11.30;99.90
57753;DHT22;43583;53.132;6.574;2023-02-21T11:26:18;11.40;99.90
57753;DHT22;43583;53.132;6.574;2023-02-21T11:28:45;11.40;99.90
57753;DHT22;43583;53.132;6.574;2023-02-21T11:33:47;11.40;99.90
57753;DHT22;43583;53.132;6.574;2023-02-21T11:36:17;11.50;99.90
57753;DHT22;43583;53.132;6.574;2023-02-21T11:38:45;11.50;99.90
57753;DHT22;43583;53.132;6.574;2023-02-21T11:41:28;11.60;99.90
57753;DHT22;43583;53.132;6.574;2023-02-21T11:43:56;11.60;99.90
57753;DHT22;43583;53.132;6.574;2023-02-21T11:46:57;11.60;99.90
57753;DHT22;43583;53.132;6.574;2023-02-21T11:49:35;11.70;99.90
57753;DHT22;43583;53.132;6.574;2023-02-21T11:52:05;11.60;99.90
57753;DHT22;43583;53.132;6.574;2023-02-21T11:54:33;11.60;99.90
57753;DHT22;43583;53.132;6.574;2023-02-21T11:57:11;11.60;99.90
57753;DHT22;43583;53.132;6.574;2023-02-21T12:00:02;11.50;99.90
57753;DHT22;43583;53.132;6.574;2023-02-21T12:03:07;11.50;99.90
57753;DHT22;43583;53.132;6.574;2023-02-21T12:11:49;11.50;99.90
57753;DHT22;43583;53.132;6.574;2023-02-21T12:14:44;11.60;99.90
57753;DHT22;43583;53.132;6.574;2023-02-21T12:17:34;11.70;99.90
57753;DHT22;43583;53.132;6.574;2023-02-21T12:20:14;11.60;99.90
57753;DHT22;43583;53.132;6.574;2023-02-21T12:25:32;11.70;99.90
57753;DHT22;43583;53.132;6.574;2023-02-21T12:28:20;11.70;99.90
57753;DHT22;43583;53.132;6.574;2023-02-21T12:33:42;11.80;99.90
57753;DHT22;43583;53.132;6.574;2023-02-21T12:36:16;11.80;99.90
57753;DHT22;43583;53.132;6.574;2023-02-21T12:38:53;11.80;99.90
57753;DHT22;43583;53.132;6.574;2023-02-21T12:44:47;11.90;99.90
57753;DHT22;43583;53.132;6.574;2023-02-21T12:47:18;11.90;99.90
57753;DHT22;43583;53.132;6.574;2023-02-21T12:55:04;11.80;99.90
57753;DHT22;43583;53.132;6.574;2023-02-21T13:00:42;11.80;99.90
57753;DHT22;43583;53.132;6.574;2023-02-21T13:03:36;11.70;99.90
57753;DHT22;43583;53.132;6.574;2023-02-21T13:06:07;11.80;99.90
57753;DHT22;43583;53.132;6.574;2023-02-21T13:08:52;11.80;99.90
57753;DHT22;43583;53.132;6.574;2023-02-21T13:11:28;11.80;99.90
57753;DHT22;43583;53.132;6.574;2023-02-21T13:13:55;11.90;99.90
57753;DHT22;43583;53.132;6.574;2023-02-21T13:16:22;11.90;99.90
57753;DHT22;43583;53.132;6.574;2023-02-21T13:19:02;11.90;99.90
57753;DHT22;43583;53.132;6.574;2023-02-21T13:24:50;11.80;99.90
57753;DHT22;43583;53.132;6.574;2023-02-21T13:29:47;11.70;99.90
57753;DHT22;43583;53.132;6.574;2023-02-21T13:32:16;11.70;99.90
57753;DHT22;43583;53.132;6.574;2023-02-21T13:34:53;11.70;99.90
57753;DHT22;43583;53.132;6.574;2023-02-21T13:37:22;11.70;99.90
57753;DHT22;43583;53.132;6.574;2023-02-21T13:39:56;11.70;99.90
57753;DHT22;43583;53.132;6.574;2023-02-21T13:42:27;11.60;99.90
57753;DHT22;43583;53.132;6.574;2023-02-21T13:45:17;11.50;99.90
57753;DHT22;43583;53.132;6.574;2023-02-21T13:53:24;11.40;99.90
57753;DHT22;43583;53.132;6.574;2023-02-21T13:58:34;11.20;99.90
57753;DHT22;43583;53.132;6.574;2023-02-21T14:02:13;11.10;99.90
57753;DHT22;43583;53.132;6.574;2023-02-21T14:07:11;11.10;99.90
57753;DHT22;43583;53.132;6.574;2023-02-21T14:09:39;11.00;99.90
57753;DHT22;43583;53.132;6.574;2023-02-21T14:12:06;11.00;99.90
57753;DHT22;43583;53.132;6.574;2023-02-21T14:14:36;11.00;99.90
57753;DHT22;43583;53.132;6.574;2023-02-21T14:17:07;11.00;99.90
57753;DHT22;43583;53.132;6.574;2023-02-21T14:22:20;11.00;99.90
57753;DHT22;43583;53.132;6.574;2023-02-21T14:24:51;11.00;99.90
57753;DHT22;43583;53.132;6.574;2023-02-21T14:32:46;10.90;99.90
57753;DHT22;43583;53.132;6.574;2023-02-21T14:35:34;10.90;99.90
57753;DHT22;43583;53.132;6.574;2023-02-21T14:38:24;10.80;99.90
57753;DHT22;43583;53.132;6.574;2023-02-21T14:40:57;10.80;99.90
57753;DHT22;43583;53.132;6.574;2023-02-21T14:43:57;10.80;99.90
57753;DHT22;43583;53.132;6.574;2023-02-21T14:52:48;10.80;99.90
57753;DHT22;43583;53.132;6.574;2023-02-21T14:58:25;10.70;99.90
57753;DHT22;43583;53.132;6.574;2023-02-21T15:01:39;10.70;99.90
57753;DHT22;43583;53.132;6.574;2023-02-21T15:04:03;10.60;99.90
57753;DHT22;43583;53.132;6.574;2023-02-21T15:06:34;10.70;99.90
57753;DHT22;43583;53.132;6.574;2023-02-21T15:09:11;10.60;99.90
57753;DHT22;43583;53.132;6.574;2023-02-21T15:11:39;10.50;99.90
57753;DHT22;43583;53.132;6.574;2023-02-21T15:14:20;10.50;99.90
57753;DHT22;43583;53.132;6.574;2023-02-21T15:17:01;10.40;99.90
57753;DHT22;43583;53.132;6.574;2023-02-21T15:19:34;10.40;99.90
57753;DHT22;43583;53.132;6.574;2023-02-21T15:24:58;10.40;99.90
57753;DHT22;43583;53.132;6.574;2023-02-21T15:27:24;10.30;99.90
57753;DHT22;43583;53.132;6.574;2023-02-21T15:30:36;10.30;99.90
57753;DHT22;43583;53.132;6.574;2023-02-21T15:33:10;10.30;99.90
57753;DHT22;43583;53.132;6.574;2023-02-21T15:35:39;10.30;99.90
57753;DHT22;43583;53.132;6.574;2023-02-21T15:38:14;10.20;99.90
57753;DHT22;43583;53.132;6.574;2023-02-21T15:40:41;10.20;99.90
57753;DHT22;43583;53.132;6.574;2023-02-21T15:43:07;10.20;99.90
57753;DHT22;43583;53.132;6.574;2023-02-21T15:45:43;10.20;99.90
57753;DHT22;43583;53.132;6.574;2023-02-21T15:48:10;10.20;99.90
57753;DHT22;43583;53.132;6.574;2023-02-21T15:50:45;10.10;99.90
57753;DHT22;43583;53.132;6.574;2023-02-21T15:53:22;10.10;99.90
57753;DHT22;43583;53.132;6.574;2023-02-21T15:55:50;10.10;99.90
57753;DHT22;43583;53.132;6.574;2023-02-21T15:58:24;10.10;99.90
57753;DHT22;43583;53.132;6.574;2023-02-21T16:01:10;10.10;99.90
57753;DHT22;43583;53.132;6.574;2023-02-21T16:03:40;10.10;99.90
57753;DHT22;43583;53.132;6.574;2023-02-21T16:08:39;10.00;99.90
57753;DHT22;43583;53.132;6.574;2023-02-21T16:11:14;10.00;99.90
57753;DHT22;43583;53.132;6.574;2023-02-21T16:13:40;10.00;99.90
57753;DHT22;43583;53.132;6.574;2023-02-21T16:16:07;9.90;99.90
57753;DHT22;43583;53.132;6.574;2023-02-21T16:18:33;9.90;99.90
57753;DHT22;43583;53.132;6.574;2023-02-21T16:21:02;9.90;99.90
57753;DHT22;43583;53.132;6.574;2023-02-21T16:23:32;9.90;99.90
57753;DHT22;43583;53.132;6.574;2023-02-21T16:28:38;9.90;99.90
57753;DHT22;43583;53.132;6.574;2023-02-21T16:31:09;9.80;99.90
57753;DHT22;43583;53.132;6.574;2023-02-21T16:33:38;9.80;99.90
57753;DHT22;43583;53.132;6.574;2023-02-21T16:36:08;9.90;99.90
57753;DHT22;43583;53.132;6.574;2023-02-21T16:38:34;9.80;99.90
57753;DHT22;43583;53.132;6.574;2023-02-21T16:40:59;9.80;99.90
57753;DHT22;43583;53.132;6.574;2023-02-21T16:43:27;9.70;99.90
57753;DHT22;43583;53.132;6.574;2023-02-21T16:45:57;9.70;99.90
57753;DHT22;43583;53.132;6.574;2023-02-21T16:48:27;9.70;99.90
57753;DHT22;43583;53.132;6.574;2023-02-21T16:50:58;9.60;99.90
57753;DHT22;43583;53.132;6.574;2023-02-21T16:53:24;9.60;99.90
57753;DHT22;43583;53.132;6.574;2023-02-21T16:55:50;9.60;99.90
57753;DHT22;43583;53.132;6.574;2023-02-21T16:58:29;9.60;99.90
57753;DHT22;43583;53.132;6.574;2023-02-21T17:00:57;9.60;99.90
57753;DHT22;43583;53.132;6.574;2023-02-21T17:03:24;9.50;99.90
57753;DHT22;43583;53.132;6.574;2023-02-21T17:05:50;9.50;99.90
57753;DHT22;43583;53.132;6.574;2023-02-21T17:08:17;9.50;99.90
57753;DHT22;43583;53.132;6.574;2023-02-21T17:10:42;9.40;99.90
57753;DHT22;43583;53.132;6.574;2023-02-21T17:13:08;9.40;99.90
57753;DHT22;43583;53.132;6.574;2023-02-21T17:15:34;9.40;99.90
57753;DHT22;43583;53.132;6.574;2023-02-21T17:18:00;9.40;99.90
57753;DHT22;43583;53.132;6.574;2023-02-21T17:20:26;9.40;99.90
57753;DHT22;43583;53.132;6.574;2023-02-21T17:22:53;9.40;99.90
57753;DHT22;43583;53.132;6.574;2023-02-21T17:25:21;9.40;99.90
57753;DHT22;43583;53.132;6.574;2023-02-21T17:27:47;9.30;99.90
57753;DHT22;43583;53.132;6.574;2023-02-21T17:30:14;9.30;99.90
57753;DHT22;43583;53.132;6.574;2023-02-21T17:32:39;9.30;99.90
57753;DHT22;43583;53.132;6.574;2023-02-21T17:35:05;9.30;99.90
57753;DHT22;43583;53.132;6.574;2023-02-21T17:37:31;9.30;99.90
57753;DHT22;43583;53.132;6.574;2023-02-21T17:39:57;9.30;99.90
57753;DHT22;43583;53.132;6.574;2023-02-21T17:42:23;9.30;99.90
57753;DHT22;43583;53.132;6.574;2023-02-21T17:44:49;9.30;99.90
57753;DHT22;43583;53.132;6.574;2023-02-21T17:47:20;9.30;99.90
57753;DHT22;43583;53.132;6.574;2023-02-21T17:49:49;9.30;99.90
57753;DHT22;43583;53.132;6.574;2023-02-21T17:52:16;9.30;99.90
57753;DHT22;43583;53.132;6.574;2023-02-21T17:54:42;9.30;99.90
57753;DHT22;43583;53.132;6.574;2023-02-21T17:57:08;9.30;99.90
57753;DHT22;43583;53.132;6.574;2023-02-21T17:59:35;9.30;99.90
57753;DHT22;43583;53.132;6.574;2023-02-21T18:02:00;9.30;99.90